Flight Track Log - Related Links

Times and Time Zones

All times are in EDT time to prevent confusion due to time zone crossing. See the DAL6197 flight status page for this flight to view local times or setup timezone preferences in your user account.


Time Position Orientation Groundspeed Altitude Reporting Facility
EDT Latitude Longitude Course Direction KTS MPH feet Rate Location/Type
Wed 06:02:22 AM 42.8914 -85.4642 118° Southeast 189 217 2,600  Level Cleveland Center
Wed 06:03:22 AM 42.8972 -85.3739 85° East 249 287 5,200 2,826 Climbing Cleveland Center
Wed 06:04:23 AM 42.8561 -85.2875 123° Southeast 267 307 8,300 2,876 Climbing Chicago Center
Wed 06:05:23 AM 42.8142 -85.1911 121° Southeast 292 336 11,000 2,281 Climbing Chicago Center
Wed 06:06:24 AM 42.7658 -85.0781 120° Southeast 341 392 12,900 1,983 Climbing Chicago Center
Wed 06:07:00 AM 42.7869 -84.7915 118° Southeast  Level Estimated
Wed 06:07:24 AM 42.7147 -84.9569 120° Southeast 368 423 15,000  Level Chicago Center
Wed 06:08:25 AM 42.6589 -84.8308 121° Southeast 386 444 17,500 2,380 Climbing Chicago Center
Wed 06:09:25 AM 42.6047 -84.7058 120° Southeast 386 444 19,800 1,983 Climbing Chicago Center
Wed 06:10:26 AM 42.5500 -84.5803 121° Southeast 387 445 21,500 1,587 Climbing Chicago Center
Wed 06:11:26 AM 42.4903 -84.4453 121° Southeast 413 475 23,000 1,561 Climbing Chicago Center
Wed 06:12:29 AM 42.4400 -84.2803 112° Southeast 447 514 24,700 1,548 Climbing Cleveland Center
Wed 06:13:30 AM 42.4128 -84.1222 103° East 435 501 26,200 1,328 Climbing Cleveland Center
Wed 06:14:31 AM 42.3853 -83.9586 103° East 444 511 27,400 1,131 Climbing Cleveland Center
Wed 06:15:32 AM 42.3556 -83.7933 104° East 452 520 28,500 1,230 Climbing Cleveland Center
Wed 06:16:33 AM 42.3200 -83.5906 103° East 461 531 29,900 1,180 Climbing Cleveland Center
Wed 06:17:34 AM 42.2942 -83.4292 102° East 470 541 30,900 1,033 Climbing Cleveland Center
Wed 06:18:35 AM 42.2603 -83.2569 105° East 470 541 32,000 1,091 Climbing Cleveland Center
Wed 06:19:35 AM 42.2311 -83.0950 104° East 470 541 33,100 1,091 Climbing Cleveland Center
Wed 06:20:36 AM 42.1994 -82.9233 104° East 472 543 34,200 1,082 Climbing Cleveland Center
Wed 06:21:37 AM 42.1683 -82.7519 104° East 471 542 35,300 1,131 Climbing Cleveland Center
Wed 06:22:38 AM 42.1311 -82.5478 104° East 469 540 36,500 984 Climbing Cleveland Center
Wed 06:23:39 AM 42.1008 -82.3772 103° East 469 540 37,300 639 Climbing Cleveland Center
Wed 06:24:40 AM 42.0658 -82.2039 105° East 479 551 37,800 492 Climbing Cleveland Center
Wed 06:25:41 AM 42.0339 -82.0400 105° East 482 555 38,300 590 Climbing Cleveland Center
Wed 06:26:42 AM 42.0008 -81.8614 104° East 486 559 39,000 689 Climbing Cleveland Center
Wed 06:27:43 AM 41.9658 -81.6856 105° East 483 556 39,700 590 Climbing Cleveland Center
Wed 06:28:44 AM 41.9325 -81.5106 104° East 478 550 40,200 492 Climbing Cleveland Center
Wed 06:29:45 AM 41.8983 -81.3378 105° East 474 545 40,700 393 Climbing Cleveland Center
Wed 06:30:46 AM 41.8633 -81.1661 105° East 472 543 41,000 146 Climbing Cleveland Center
Wed 06:31:48 AM 41.8303 -80.9947 104° East 468 539 41,000  Level Cleveland Center
Wed 06:32:49 AM 41.7939 -80.8194 106° East 478 550 41,000  Level Cleveland Center
Wed 06:33:50 AM 41.7592 -80.6444 105° East 481 554 41,000  Level Cleveland Center
Wed 06:34:51 AM 41.7225 -80.4700 106° East 482 555 41,000  Level Cleveland Center
Wed 06:35:52 AM 41.6864 -80.2944 105° East 486 559 41,000  Level Cleveland Center
Wed 06:36:53 AM 41.6472 -80.1139 106° East 482 555 41,000  Level Cleveland Center
Wed 06:37:55 AM 41.6147 -79.9472 105° East 482 555 41,000  Level Cleveland Center
Wed 06:38:56 AM 41.5697 -79.7406 106° East 484 557 41,000  Level Cleveland Center
Wed 06:39:57 AM 41.5336 -79.5694 106° East 482 555 41,000  Level Cleveland Center
Wed 06:40:58 AM 41.4961 -79.3997 106° East 480 552 41,000  Level Cleveland Center
Wed 06:41:59 AM 41.4594 -79.2306 106° East 479 551 41,000 -195 Level Cleveland Center
Wed 06:43:01 AM 41.4214 -79.0611 107° East 476 548 40,600 -1,268 Descending Cleveland Center
Wed 06:44:02 AM 41.3811 -78.8750 106° East 486 559 38,400 -2,115 Descending Cleveland Center
Wed 06:45:03 AM 41.3419 -78.7025 107° East 487 560 36,300 -1,770 Descending Cleveland Center
Wed 06:46:04 AM 41.3033 -78.5292 106° East 488 562 34,800 -1,328 Descending Cleveland Center
Wed 06:47:05 AM 41.2644 -78.3567 107° East 502 578 33,600 -893 Descending New York Center
Wed 06:48:05 AM 41.2214 -78.1806 108° East 502 578 33,000 -300 Descending New York Center
Wed 06:49:05 AM 41.1972 -77.9986 100° East 502 578 33,000  Level New York Center
Wed 06:50:05 AM 41.1747 -77.8169 99° East 496 571 33,000  Level New York Center
Wed 06:51:05 AM 41.1503 -77.6325 100° East 496 571 33,000 -800 Level New York Center
Wed 06:52:05 AM 41.1269 -77.4567 100° East 489 563 31,400 -1,400 Descending New York Center
Wed 06:53:05 AM 41.1031 -77.2833 100° East 483 556 30,200 -1,100 Descending New York Center
Wed 06:54:05 AM 41.0794 -77.1050 100° East 483 556 29,200 -950 Descending New York Center
Wed 06:55:05 AM 41.0572 -76.9322 100° East 483 556 28,300 -2,400 Descending New York Center
Wed 06:56:05 AM 41.0347 -76.7625 100° East 473 544 24,400 -3,650 Descending New York Center
Wed 06:57:05 AM 41.0036 -76.5947 104° East 445 512 21,000 -2,600 Descending New York Center
Wed 06:58:05 AM 40.9669 -76.4486 108° East 432 497 19,200 -1,450 Descending New York Center
Wed 06:59:05 AM 40.9364 -76.3031 105° East 404 465 18,100 -600 Descending New York Center
Wed 07:00:05 AM 40.9031 -76.1631 107° East 398 458 18,000 -700 Descending New York Center
Wed 07:01:05 AM 40.8714 -76.0372 108° East 403 464 16,700 -1,900 Descending New York Center
Wed 07:02:05 AM 40.8358 -75.8972 109° East 398 458 14,200 -1,850 Descending New York Center
Wed 07:03:05 AM 40.8003 -75.7519 108° East 389 448 13,000 -600 Descending New York Center
Wed 07:04:05 AM 40.7681 -75.6236 108° East 375 432 13,000  Level New York Center
Wed 07:05:05 AM 40.7397 -75.5011 107° East 361 415 13,000 -350 Level New York Center
Wed 07:06:05 AM 40.7008 -75.3806 113° Southeast 361 415 12,300 -900 Descending New York Center
Wed 07:07:05 AM 40.6575 -75.2600 115° Southeast 361 415 11,200 -1,050 Descending New York Center
Wed 07:08:05 AM 40.6142 -75.1397 115° Southeast 361 415 10,200 -600 Descending New York Center
Wed 07:09:05 AM 40.5783 -75.0364 115° Southeast 361 415 10,000 -100 Descending New York Center
Wed 07:10:05 AM 40.5444 -74.9306 113° Southeast 328 377 10,000  Level New York Center
Wed 07:11:05 AM 40.5167 -74.8331 111° Southeast 291 335 10,000  Level New York Center
Wed 07:12:05 AM 40.4828 -74.7275 113° Southeast 280 322 10,000 -350 Level New York Center
Wed 07:13:05 AM 40.4378 -74.6375 123° Southeast 286 329 9,300 -500 Descending New York Center
Wed 07:14:05 AM 40.3925 -74.5561 126° Southeast 291 335 9,000 -150 Descending New York Center
Wed 07:15:05 AM 40.4000 -74.4556 84° East 264 304 9,000 -300 Level New York Center
Wed 07:16:05 AM 40.4175 -74.3611 76° East 264 304 8,400 -909 Descending New York Center
Wed 07:17:17 AM 40.4333 -74.2500 79° East 262 302 7,000 -667 Descending New York TRACON
Wed 07:18:11 AM 40.4833 -74.1833 45° Northeast 278 320 7,000 -737 Level New York TRACON
Wed 07:19:11 AM 40.5500 -74.1167 37° Northeast 278 320 5,600 -1,513 Descending New York TRACON
Wed 07:20:06 AM 40.6000 -74.0667 37° Northeast 263 303 4,100 -835 Descending New York TRACON
Wed 07:21:06 AM 40.6500 -74.0000 45° Northeast 259 298 4,000 -53 Descending New York TRACON
Wed 07:22:00 AM 40.7000 -73.9500 37° Northeast 267 307 4,000  Level New York TRACON
Wed 07:23:00 AM 40.7500 -73.8667 52° Northeast 266 306 4,000  Level New York TRACON
Wed 07:24:06 AM 40.7833 -73.7833 62° Northeast 264 304 4,000  Level New York TRACON
Wed 07:25:06 AM 40.8333 -73.7333 37° Northeast 211 243 4,000 -450 Level New York TRACON
Wed 07:26:06 AM 40.8833 -73.7167 14° North 189 217 3,100 -550 Descending New York TRACON
Wed 07:27:06 AM 40.9000 -73.7833 288° West 195 224 2,900 -737 Descending New York TRACON
Wed 07:28:00 AM 40.8500 -73.8167 207° Southwest 175 201 1,700 -1,000 Descending New York TRACON
Wed 07:29:00 AM 40.8333 -73.8333 217° Southwest 123 142 1,000 -678 Descending New York TRACON
Wed 07:29:55 AM 40.8000 -73.8667 217° Southwest 129 148 400 -655 Descending New York TRACON
Wed 07:31:00 AM 40.7772 -73.8726 224° Southwest  Level Estimated

Login

Don't have an account? Register now (free) for customized features, flight alerts, and more!